Time;durP1;ratioP1;P1;durP2;ratioP2;P2;SDS_P1;SDS_P2;PMS_P1;PMS_P2;Temp;Humidity;BMP_temperature;BMP_pressure;BME280_temperature;BME280_humidity;BME280_pressure;Samples;Min_cycle;Max_cycle;Signal;HPM_P1;HPM_P2
2022/08/11 00:01:11;;;;;;;;;;;;;;;;;;5113420;28;19916;-85
2022/08/11 00:03:40;;;;;;;;;;;;;;;;;;5113816;28;19916;-87
2022/08/11 00:06:06;;;;;;;;;;;;;;;;;;5097206;28;19965;-87
2022/08/11 00:08:32;;;;;;;;;;;;;;;;;;5113058;28;19916;-85
2022/08/11 00:10:58;;;;;;;;;;;;;;;;;;5115136;28;19916;-86
2022/08/11 00:13:40;;;;;;;;;;;;;;;;;;5115733;28;19916;-85
2022/08/11 00:16:15;;;;;;;;;;;;;;;;;;5112977;28;19920;-85
2022/08/11 00:18:41;;;;;;;;;;;;;;;;;;5113060;28;20288;-86
2022/08/11 00:21:07;;;;;;;;;;;;;;;;;;5097043;28;19916;-89
2022/08/11 00:23:32;;;;;;;;;;;;;;;;;;5097187;28;20426;-87
2022/08/11 00:25:57;;;;;;;;;;;;;;;;;;5112700;28;19927;-91
2022/08/11 00:28:26;;;;;;;;;;;;;;;;;;5112772;28;20270;-88
2022/08/11 00:30:52;;;;;;;;;;;;;;;;;;5117077;28;19923;-86
2022/08/11 00:33:18;;;;;;;;;;;;;;;;;;5119159;28;19920;-86
2022/08/11 00:35:44;;;;;;;;;;;;;;;;;;5113398;28;19916;-85
2022/08/11 00:38:09;;;;;;;;;;;;;;;;;;5096552;28;19916;-86
2022/08/11 00:40:37;;;;;;;;;;;;;;;;;;5096996;28;19916;-86
2022/08/11 00:43:14;;;;;;;;;;;;;;;;;;5096530;28;20356;-85
2022/08/11 00:45:45;;;;;;;;;;;;;;;;;;5113415;28;19943;-87
2022/08/11 00:48:31;;;;;;;;;;;;;;;;;;5112534;28;19916;-87
2022/08/11 00:51:19;;;;;;;;;;;;;;;;;;5098645;28;19916;-86
2022/08/11 00:54:20;;;;;;;;;;;;;;;;;;5125930;28;19943;-85
2022/08/11 00:57:04;;;;;;;;;;;;;;;;;;5036782;28;19917;-85
2022/08/11 00:59:58;;;;;;;;;;;;;;;;;;5091782;28;19917;-88
2022/08/11 01:02:42;;;;;;;;;;;;;;;;;;5081982;28;19923;-87
2022/08/11 01:05:14;;;;;;;;;;;;;;;;;;5096395;28;19916;-85
2022/08/11 01:07:58;;;;;;;;;;;;;;;;;;5096484;28;19916;-87
2022/08/11 01:10:36;;;;;;;;;;;;;;;;;;5102661;28;19924;-87
2022/08/11 01:13:14;;;;;;;;;;;;;;;;;;5112795;28;19919;-84
2022/08/11 01:15:58;;;;;;;;;;;;;;;;;;5119118;28;20046;-86
2022/08/11 01:18:42;;;;;;;;;;;;;;;;;;5095908;28;19924;-85
2022/08/11 01:21:30;;;;;;;;;;;;;;;;;;5096029;28;20338;-85
2022/08/11 01:23:55;;;;;;;;;;;;;;;;;;5095998;28;19923;-85
2022/08/11 01:26:23;;;;;;;;;;;;;;;;;;5095477;28;19916;-86
2022/08/11 01:29:07;;;;;;;;;;;;;;;;;;5096014;28;19920;-86
2022/08/11 01:32:11;;;;;;;;;;;;;;;;;;5096641;28;19947;-89
2022/08/11 01:34:47;;;;;;;;;;;;;;;;;;5040384;28;19967;-86
2022/08/11 01:37:15;;;;;;;;;;;;;;;;;;5033856;28;19917;-86
2022/08/11 01:39:49;;;;;;;;;;;;;;;;;;5068172;28;19958;-86
2022/08/11 01:45:26;;;;;;;;;;;;;;;;;;5108813;28;20371;-89
2022/08/11 01:47:55;;;;;;;;;;;;;;;;;;5111246;28;19923;-87
2022/08/11 01:50:29;;;;;;;;;;;;;;;;;;5095639;28;20004;-86
2022/08/11 01:52:57;;;;;;;;;;;;;;;;;;5095614;28;19974;-87
2022/08/11 01:55:44;;;;;;;;;;;;;;;;;;5105294;28;19943;-87
2022/08/11 01:58:20;;;;;;;;;;;;;;;;;;5111393;28;19920;-86
2022/08/11 02:00:55;;;;;;;;;;;;;;;;;;5093809;28;20002;-86
2022/08/11 02:03:26;;;;;;;;;;;;;;;;;;5095373;28;19916;-85
2022/08/11 02:09:08;;;;;;;;;;;;;;;;;;5068993;28;19922;-87
2022/08/11 02:11:33;;;;;;;;;;;;;;;;;;5095675;28;20003;-86
2022/08/11 02:14:06;;;;;;;;;;;;;;;;;;5113346;28;19916;-87
2022/08/11 02:16:47;;;;;;;;;;;;;;;;;;5114255;28;19914;-86
2022/08/11 02:24:54;;;;;;;;;;;;;;;;;;5108254;28;19966;-87
2022/08/11 02:27:20;;;;;;;;;;;;;;;;;;5111037;28;20300;-86
2022/08/11 02:29:48;;;;;;;;;;;;;;;;;;5093511;28;20323;-87
2022/08/11 02:35:15;;;;;;;;;;;;;;;;;;5108180;28;19954;-88
2022/08/11 02:37:43;;;;;;;;;;;;;;;;;;5115283;28;19970;-87
2022/08/11 02:40:10;;;;;;;;;;;;;;;;;;5094985;28;20248;-87
2022/08/11 02:42:41;;;;;;;;;;;;;;;;;;5110338;28;19923;-87
2022/08/11 02:45:25;;;;;;;;;;;;;;;;;;5110060;28;19920;-87
2022/08/11 02:50:37;;;;;;;;;;;;;;;;;;5094531;28;19923;-88
2022/08/11 02:53:05;;;;;;;;;;;;;;;;;;5110627;28;19916;-87
2022/08/11 02:55:32;;;;;;;;;;;;;;;;;;5110625;28;19916;-88
2022/08/11 02:58:09;;;;;;;;;;;;;;;;;;5101910;28;19920;-88
2022/08/11 03:00:44;;;;;;;;;;;;;;;;;;5094580;28;19916;-86
2022/08/11 03:03:09;;;;;;;;;;;;;;;;;;5110738;28;20391;-87
2022/08/11 03:06:01;;;;;;;;;;;;;;;;;;5110354;28;19916;-86
2022/08/11 03:08:36;;;;;;;;;;;;;;;;;;5070700;28;19912;-86
2022/08/11 03:16:59;;;;;;;;;;;;;;;;;;5097438;28;19923;-87
2022/08/11 03:19:43;;;;;;;;;;;;;;;;;;5116797;28;19926;-87
2022/08/11 03:22:08;;;;;;;;;;;;;;;;;;5094757;28;19957;-87
2022/08/11 03:24:52;;;;;;;;;;;;;;;;;;5094495;28;19916;-85
2022/08/11 03:27:35;;;;;;;;;;;;;;;;;;5094119;28;20290;-86
2022/08/11 03:30:16;;;;;;;;;;;;;;;;;;5109685;28;19916;-86
2022/08/11 03:36:13;;;;;;;;;;;;;;;;;;5088536;28;19923;-86
2022/08/11 03:39:06;;;;;;;;;;;;;;;;;;5100408;28;19916;-87
2022/08/11 03:41:43;;;;;;;;;;;;;;;;;;5110263;28;20318;-87
2022/08/11 03:44:24;;;;;;;;;;;;;;;;;;5108855;28;19920;-85
2022/08/11 03:47:08;;;;;;;;;;;;;;;;;;5093992;28;19916;-87
2022/08/11 03:49:35;;;;;;;;;;;;;;;;;;5096372;28;20236;-86
2022/08/11 03:52:06;;;;;;;;;;;;;;;;;;5097813;28;19916;-86
2022/08/11 03:54:37;;;;;;;;;;;;;;;;;;5097957;28;19916;-86
2022/08/11 03:57:21;;;;;;;;;;;;;;;;;;5097814;28;19916;-87
2022/08/11 03:59:58;;;;;;;;;;;;;;;;;;5122876;28;20320;-87
2022/08/11 04:02:30;;;;;;;;;;;;;;;;;;5098090;28;19913;-87
2022/08/11 04:05:14;;;;;;;;;;;;;;;;;;5097631;28;19923;-87
2022/08/11 04:07:42;;;;;;;;;;;;;;;;;;5097299;28;20322;-87
2022/08/11 04:10:13;;;;;;;;;;;;;;;;;;5097504;28;19912;-86
2022/08/11 04:12:44;;;;;;;;;;;;;;;;;;5097200;28;19973;-86
2022/08/11 04:18:38;;;;;;;;;;;;;;;;;;5112647;28;19926;-87
2022/08/11 04:21:21;;;;;;;;;;;;;;;;;;5102986;28;19921;-87
2022/08/11 04:23:49;;;;;;;;;;;;;;;;;;5097002;28;19916;-89
2022/08/11 04:26:21;;;;;;;;;;;;;;;;;;5096911;28;19977;-86
2022/08/11 04:28:52;;;;;;;;;;;;;;;;;;5096848;28;19916;-86
2022/08/11 04:31:29;;;;;;;;;;;;;;;;;;5097073;28;19920;-88
2022/08/11 04:34:05;;;;;;;;;;;;;;;;;;5112815;28;19923;-87
2022/08/11 04:39:34;;;;;;;;;;;;;;;;;;5098943;28;19965;-87
2022/08/11 04:45:01;;;;;;;;;;;;;;;;;;5096490;28;20364;-87
2022/08/11 05:02:02;;;;;;;;;;;;;;;;;;5102325;28;19931;-86
2022/08/11 05:07:26;;;;;;;;;;;;;;;;;;5095973;28;19973;-84
2022/08/11 05:10:06;;;;;;;;;;;;;;;;;;5095562;28;19916;-84
2022/08/11 05:12:35;;;;;;;;;;;;;;;;;;5111442;28;19922;-84
2022/08/11 05:37:08;;;;;;;;;;;;;;;;;;5095010;28;19923;-84
2022/08/11 05:56:34;;;;;;;;;;;;;;;;;;5094237;28;21226;-84
2022/08/11 05:58:59;;;;;;;;;;;;;;;;;;5093572;28;19916;-85
2022/08/11 06:01:31;;;;;;;;;;;;;;;;;;5112239;28;19916;-84
2022/08/11 06:04:15;;;;;;;;;;;;;;;;;;5115438;28;19978;-84
2022/08/11 06:06:56;;;;;;;;;;;;;;;;;;5108140;28;19917;-84
2022/08/11 06:09:22;;;;;;;;;;;;;;;;;;5110465;28;19916;-87
2022/08/11 06:11:47;;;;;;;;;;;;;;;;;;5095272;28;20017;-84
2022/08/11 06:14:12;;;;;;;;;;;;;;;;;;5094797;28;19916;-83
2022/08/11 06:16:38;;;;;;;;;;;;;;;;;;5095183;28;19924;-85
2022/08/11 06:19:03;;;;;;;;;;;;;;;;;;5110532;28;19920;-85
2022/08/11 06:21:30;;;;;;;;;;;;;;;;;;5095865;28;19923;-85
2022/08/11 06:23:56;;;;;;;;;;;;;;;;;;5112913;28;19916;-84
2022/08/11 06:26:21;;;;;;;;;;;;;;;;;;5110659;28;19916;-85
2022/08/11 06:28:46;;;;;;;;;;;;;;;;;;5110683;28;19923;-84
2022/08/11 06:31:12;;;;;;;;;;;;;;;;;;5094418;28;19916;-86
2022/08/11 06:33:42;;;;;;;;;;;;;;;;;;5094645;28;19916;-83
2022/08/11 06:36:08;;;;;;;;;;;;;;;;;;5094365;28;19950;-84
2022/08/11 06:38:48;;;;;;;;;;;;;;;;;;5094509;28;19959;-84
2022/08/11 06:41:32;;;;;;;;;;;;;;;;;;5094956;28;20015;-84
2022/08/11 06:44:12;;;;;;;;;;;;;;;;;;5101472;28;19954;-84
2022/08/11 06:46:38;;;;;;;;;;;;;;;;;;5094823;28;19927;-84
2022/08/11 06:49:04;;;;;;;;;;;;;;;;;;5110282;28;19951;-83
2022/08/11 06:51:29;;;;;;;;;;;;;;;;;;5110021;28;19916;-84
2022/08/11 06:54:02;;;;;;;;;;;;;;;;;;5094187;28;19916;-85
2022/08/11 07:02:08;;;;;;;;;;;;;;;;;;5099830;28;19924;-84
2022/08/11 07:04:45;;;;;;;;;;;;;;;;;;5100044;28;19928;-84
2022/08/11 07:15:55;;;;;;;;;;;;;;;;;;5107409;28;19923;-84
2022/08/11 07:29:28;;;;;;;;;;;;;;;;;;5086517;28;20357;-83
2022/08/11 07:31:53;;;;;;;;;;;;;;;;;;5113513;28;19923;-84
2022/08/11 07:34:24;;;;;;;;;;;;;;;;;;5113229;28;19912;-84
2022/08/11 07:36:55;;;;;;;;;;;;;;;;;;5097537;28;19938;-84
2022/08/11 07:39:24;;;;;;;;;;;;;;;;;;5113721;28;19916;-84
2022/08/11 07:41:50;;;;;;;;;;;;;;;;;;5113522;28;20364;-82
2022/08/11 07:44:15;;;;;;;;;;;;;;;;;;5113842;28;19916;-82
2022/08/11 07:52:29;;;;;;;;;;;;;;;;;;5110810;28;19973;-82
2022/08/11 07:54:54;;;;;;;;;;;;;;;;;;5108871;28;19987;-81
2022/08/11 08:19:16;;;;;;;;;;;;;;;;;;5073928;28;19935;-89
2022/08/11 08:21:41;;;;;;;;;;;;;;;;;;5073500;28;20318;-89
2022/08/11 08:24:06;;;;;;;;;;;;;;;;;;5073025;28;19951;-88
2022/08/11 08:32:03;;;;;;;;;;;;;;;;;;5072820;28;20019;-84
2022/08/11 08:34:28;;;;;;;;;;;;;;;;;;5073210;28;20607;-81
2022/08/11 08:36:53;;;;;;;;;;;;;;;;;;5074264;28;20379;-82
2022/08/11 08:39:20;;;;;;;;;;;;;;;;;;5075790;28;19923;-81
2022/08/11 08:41:45;;;;;;;;;;;;;;;;;;5074591;28;20279;-83
2022/08/11 08:44:11;;;;;;;;;;;;;;;;;;5076143;28;19918;-84
2022/08/11 08:46:42;;;;;;;;;;;;;;;;;;5087735;28;20342;-84
2022/08/11 08:49:09;;;;;;;;;;;;;;;;;;5075215;28;19939;-81
2022/08/11 08:51:35;;;;;;;;;;;;;;;;;;5075207;28;19923;-81
2022/08/11 08:54:07;;;;;;;;;;;;;;;;;;5075476;28;19916;-81
2022/08/11 08:56:33;;;;;;;;;;;;;;;;;;5074888;28;19920;-83
2022/08/11 08:58:59;;;;;;;;;;;;;;;;;;5057942;28;19916;-83
2022/08/11 09:01:25;;;;;;;;;;;;;;;;;;5075746;28;20388;-82
2022/08/11 09:03:50;;;;;;;;;;;;;;;;;;5057978;28;19920;-82
2022/08/11 09:06:16;;;;;;;;;;;;;;;;;;5077541;28;20250;-81
2022/08/11 09:08:41;;;;;;;;;;;;;;;;;;5077796;28;19916;-82
2022/08/11 09:13:50;;;;;;;;;;;;;;;;;;5074619;28;20071;-83
2022/08/11 09:16:15;;;;;;;;;;;;;;;;;;5074093;28;20014;-82
2022/08/11 09:18:43;;;;;;;;;;;;;;;;;;5074083;28;20002;-81
2022/08/11 09:21:09;;;;;;;;;;;;;;;;;;5075384;28;19916;-82
2022/08/11 09:29:10;;;;;;;;;;;;;;;;;;5080398;28;19923;-82
2022/08/11 09:31:36;;;;;;;;;;;;;;;;;;5075489;28;19995;-82
2022/08/11 09:34:04;;;;;;;;;;;;;;;;;;5075438;28;19916;-82
2022/08/11 09:42:00;;;;;;;;;;;;;;;;;;5074447;28;20323;-84
2022/08/11 09:47:13;;;;;;;;;;;;;;;;;;5073765;28;19923;-82
2022/08/11 09:49:39;;;;;;;;;;;;;;;;;;5083872;28;19921;-82
2022/08/11 09:52:08;;;;;;;;;;;;;;;;;;5057140;28;19923;-82
2022/08/11 09:54:33;;;;;;;;;;;;;;;;;;5073593;28;19927;-83
2022/08/11 09:59:43;;;;;;;;;;;;;;;;;;5074568;28;19924;-82
2022/08/11 10:02:08;;;;;;;;;;;;;;;;;;5073737;28;19916;-83
2022/08/11 10:04:45;;;;;;;;;;;;;;;;;;5073448;28;19940;-84
2022/08/11 10:07:14;;;;;;;;;;;;;;;;;;5074557;28;19924;-83
2022/08/11 10:09:45;;;;;;;;;;;;;;;;;;5078656;28;19904;-81
2022/08/11 10:12:11;;;;;;;;;;;;;;;;;;5074635;28;19917;-83
2022/08/11 10:17:23;;;;;;;;;;;;;;;;;;5073548;28;20023;-83
2022/08/11 10:19:48;;;;;;;;;;;;;;;;;;5073136;28;19916;-82
2022/08/11 10:27:42;;;;;;;;;;;;;;;;;;5073321;28;20308;-80
2022/08/11 10:35:35;;;;;;;;;;;;;;;;;;5072979;28;19931;-81
2022/08/11 10:38:01;;;;;;;;;;;;;;;;;;5073252;28;19920;-80
2022/08/11 10:40:26;;;;;;;;;;;;;;;;;;5073634;28;19917;-80
2022/08/11 10:43:02;;;;;;;;;;;;;;;;;;5072851;28;20006;-80
2022/08/11 10:48:14;;;;;;;;;;;;;;;;;;5074430;28;19924;-81
2022/08/11 10:58:53;;;;;;;;;;;;;;;;;;5073998;28;20057;-80
2022/08/11 11:01:29;;;;;;;;;;;;;;;;;;5077945;28;19924;-80
2022/08/11 11:03:59;;;;;;;;;;;;;;;;;;5076836;28;19920;-80
2022/08/11 11:06:43;;;;;;;;;;;;;;;;;;5077151;28;19916;-80
2022/08/11 11:09:16;;;;;;;;;;;;;;;;;;5076731;28;19918;-82
2022/08/11 11:19:52;;;;;;;;;;;;;;;;;;5077822;28;20014;-81
2022/08/11 11:25:17;;;;;;;;;;;;;;;;;;5076641;28;19942;-82
2022/08/11 11:27:42;;;;;;;;;;;;;;;;;;5077483;28;19917;-80
2022/08/11 11:30:08;;;;;;;;;;;;;;;;;;5077318;28;19920;-82
2022/08/11 11:32:52;;;;;;;;;;;;;;;;;;5079096;28;19924;-81
2022/08/11 11:35:38;;;;;;;;;;;;;;;;;;5077968;28;20227;-81
2022/08/11 11:38:08;;;;;;;;;;;;;;;;;;5077227;28;20023;-81
2022/08/11 11:40:33;;;;;;;;;;;;;;;;;;5076026;28;19928;-82
2022/08/11 11:42:59;;;;;;;;;;;;;;;;;;5076271;28;19916;-86
2022/08/11 11:45:24;;;;;;;;;;;;;;;;;;5076376;28;19928;-87
2022/08/11 11:47:51;;;;;;;;;;;;;;;;;;5075982;28;19923;-86
2022/08/11 11:50:22;;;;;;;;;;;;;;;;;;5076177;28;19916;-85
2022/08/11 11:52:48;;;;;;;;;;;;;;;;;;5081110;28;20371;-86
2022/08/11 11:55:13;;;;;;;;;;;;;;;;;;5081198;28;19917;-85
2022/08/11 12:03:07;;;;;;;;;;;;;;;;;;5076046;28;19963;-85
2022/08/11 12:05:32;;;;;;;;;;;;;;;;;;5077666;28;19921;-86
2022/08/11 12:08:16;;;;;;;;;;;;;;;;;;5075852;28;19935;-86
2022/08/11 12:13:39;;;;;;;;;;;;;;;;;;5075480;28;19966;-86
2022/08/11 12:13:39;;;;;;;;;;;;;;;;;;5085983;28;19912;-88
2022/08/11 12:16:05;;;;;;;;;;;;;;;;;;5077859;28;19975;-87
2022/08/11 12:18:33;;;;;;;;;;;;;;;;;;5077306;28;19967;-87
2022/08/11 12:21:02;;;;;;;;;;;;;;;;;;5076143;28;20057;-87
2022/08/11 12:28:57;;;;;;;;;;;;;;;;;;5075887;28;19923;-87
2022/08/11 12:31:24;;;;;;;;;;;;;;;;;;5058964;28;20007;-86
2022/08/11 12:33:50;;;;;;;;;;;;;;;;;;5083335;28;19900;-87
2022/08/11 12:36:15;;;;;;;;;;;;;;;;;;5080810;28;20250;-85
2022/08/11 12:38:41;;;;;;;;;;;;;;;;;;5075094;28;19974;-85
2022/08/11 12:46:36;;;;;;;;;;;;;;;;;;5075120;28;20031;-84
2022/08/11 12:52:00;;;;;;;;;;;;;;;;;;5075353;28;20361;-86
2022/08/11 12:54:30;;;;;;;;;;;;;;;;;;5080580;28;19964;-85
2022/08/11 13:05:12;;;;;;;;;;;;;;;;;;5074844;28;20277;-87
2022/08/11 13:07:39;;;;;;;;;;;;;;;;;;5074783;28;19917;-88
2022/08/11 13:10:05;;;;;;;;;;;;;;;;;;5079435;28;19938;-84
2022/08/11 13:12:46;;;;;;;;;;;;;;;;;;5094190;28;19980;-85
2022/08/11 13:15:16;;;;;;;;;;;;;;;;;;5091236;28;20011;-87
2022/08/11 13:17:42;;;;;;;;;;;;;;;;;;5083970;28;20024;-88
2022/08/11 13:20:12;;;;;;;;;;;;;;;;;;5074350;28;19923;-86
2022/08/11 13:22:38;;;;;;;;;;;;;;;;;;5090598;28;19920;-87
2022/08/11 13:25:08;;;;;;;;;;;;;;;;;;5074311;28;19916;-87
2022/08/11 13:27:33;;;;;;;;;;;;;;;;;;5074312;28;19924;-87
2022/08/11 13:32:43;;;;;;;;;;;;;;;;;;5075298;28;20705;-85
2022/08/11 13:35:08;;;;;;;;;;;;;;;;;;5077433;28;19951;-87
2022/08/11 13:37:35;;;;;;;;;;;;;;;;;;5061709;28;20304;-86
2022/08/11 13:40:01;;;;;;;;;;;;;;;;;;5074508;28;19924;-87
2022/08/11 13:42:26;;;;;;;;;;;;;;;;;;5073879;28;19951;-85
2022/08/11 13:47:48;;;;;;;;;;;;;;;;;;5074053;28;19947;-89
2022/08/11 13:50:14;;;;;;;;;;;;;;;;;;5073653;28;20327;-88
2022/08/11 13:52:39;;;;;;;;;;;;;;;;;;5073450;28;19916;-86
2022/08/11 13:55:09;;;;;;;;;;;;;;;;;;5073909;28;19935;-86
2022/08/11 13:57:34;;;;;;;;;;;;;;;;;;5080663;28;19960;-87
2022/08/11 14:00:09;;;;;;;;;;;;;;;;;;5074167;28;19924;-87
2022/08/11 14:02:35;;;;;;;;;;;;;;;;;;5075206;28;19916;-87
2022/08/11 14:05:02;;;;;;;;;;;;;;;;;;5073611;28;20448;-86
2022/08/11 14:07:37;;;;;;;;;;;;;;;;;;5073200;28;20050;-86
2022/08/11 14:10:03;;;;;;;;;;;;;;;;;;5074431;28;19916;-87
2022/08/11 14:15:23;;;;;;;;;;;;;;;;;;5074417;28;19974;-85
2022/08/11 14:18:09;;;;;;;;;;;;;;;;;;5079672;28;19916;-84
2022/08/11 14:23:23;;;;;;;;;;;;;;;;;;5073930;28;19923;-86
2022/08/11 14:28:33;;;;;;;;;;;;;;;;;;5075318;28;19928;-86
2022/08/11 14:30:59;;;;;;;;;;;;;;;;;;5076950;28;19923;-84
2022/08/11 14:33:24;;;;;;;;;;;;;;;;;;5087654;28;19948;-84
2022/08/11 14:35:50;;;;;;;;;;;;;;;;;;5082292;28;19916;-84
2022/08/11 14:38:15;;;;;;;;;;;;;;;;;;5084816;28;20334;-84
2022/08/11 14:48:53;;;;;;;;;;;;;;;;;;5075086;28;20062;-84
2022/08/11 14:51:18;;;;;;;;;;;;;;;;;;5074738;28;19956;-85
2022/08/11 14:53:43;;;;;;;;;;;;;;;;;;5074346;28;20335;-85
2022/08/11 14:56:55;;;;;;;;;;;;;;;;;;5073313;28;20002;-84
2022/08/11 14:58:54;;;;;;;;;;;;;;;;;;5070967;28;19917;-86
2022/08/11 15:04:03;;;;;;;;;;;;;;;;;;5073951;28;19919;-86
2022/08/11 15:06:29;;;;;;;;;;;;;;;;;;5073880;28;19928;-85
2022/08/11 15:08:57;;;;;;;;;;;;;;;;;;5073866;28;20307;-85
2022/08/11 15:14:10;;;;;;;;;;;;;;;;;;5073754;28;20004;-85
2022/08/11 15:19:20;;;;;;;;;;;;;;;;;;5075640;28;20007;-84
2022/08/11 15:24:32;;;;;;;;;;;;;;;;;;5073292;28;20261;-86
2022/08/11 15:37:54;;;;;;;;;;;;;;;;;;5073013;28;20222;-82
2022/08/11 15:46:12;;;;;;;;;;;;;;;;;;5077840;28;20262;-87
2022/08/11 15:48:42;;;;;;;;;;;;;;;;;;5076786;28;19974;-85
2022/08/11 15:51:11;;;;;;;;;;;;;;;;;;5076461;28;20322;-84
2022/08/11 15:53:39;;;;;;;;;;;;;;;;;;5076721;28;19916;-86
2022/08/11 15:56:04;;;;;;;;;;;;;;;;;;5076142;28;20261;-86
2022/08/11 16:04:13;;;;;;;;;;;;;;;;;;5076270;28;19924;-85
2022/08/11 16:06:58;;;;;;;;;;;;;;;;;;5076756;28;19923;-85
2022/08/11 16:09:29;;;;;;;;;;;;;;;;;;5077891;28;19916;-86
2022/08/11 16:11:55;;;;;;;;;;;;;;;;;;5076423;28;20014;-87
2022/08/11 16:17:05;;;;;;;;;;;;;;;;;;5076297;28;19928;-87
2022/08/11 16:19:34;;;;;;;;;;;;;;;;;;5080782;28;19975;-86
2022/08/11 16:21:59;;;;;;;;;;;;;;;;;;5079513;28;19923;-85
2022/08/11 16:24:25;;;;;;;;;;;;;;;;;;5077887;28;20003;-86
2022/08/11 16:26:50;;;;;;;;;;;;;;;;;;5076712;28;19967;-85
2022/08/11 16:29:15;;;;;;;;;;;;;;;;;;5077325;28;19999;-85
2022/08/11 16:31:41;;;;;;;;;;;;;;;;;;5076435;28;19973;-85
2022/08/11 16:38:33;;;;;;;;;;;;;;;;;;5075749;28;19974;-86
2022/08/11 16:39:36;;;;;;;;;;;;;;;;;;5077122;28;19955;-86
2022/08/11 16:47:29;;;;;;;;;;;;;;;;;;5077290;28;20013;-85
2022/08/11 16:49:55;;;;;;;;;;;;;;;;;;5076961;28;20318;-85
2022/08/11 16:52:21;;;;;;;;;;;;;;;;;;5076361;28;19955;-88
2022/08/11 16:54:46;;;;;;;;;;;;;;;;;;5075727;28;19943;-85
2022/08/11 17:00:05;;;;;;;;;;;;;;;;;;5076834;28;19923;-87
2022/08/11 17:14:13;;;;;;;;;;;;;;;;;;5075902;28;19923;-88
2022/08/11 17:16:39;;;;;;;;;;;;;;;;;;5058623;28;20362;-87
2022/08/11 17:19:04;;;;;;;;;;;;;;;;;;5074678;28;20066;-87
2022/08/11 17:21:35;;;;;;;;;;;;;;;;;;5087640;28;19958;-88
2022/08/11 17:24:05;;;;;;;;;;;;;;;;;;5077380;28;19967;-87
2022/08/11 17:29:16;;;;;;;;;;;;;;;;;;5075014;28;19997;-87
2022/08/11 17:37:09;;;;;;;;;;;;;;;;;;5076927;28;19974;-87
2022/08/11 17:39:34;;;;;;;;;;;;;;;;;;5076209;28;19920;-87
2022/08/11 17:50:18;;;;;;;;;;;;;;;;;;5074829;28;19923;-87
2022/08/11 18:01:34;;;;;;;;;;;;;;;;;;5001149;28;20007;-87
2022/08/11 18:04:00;;;;;;;;;;;;;;;;;;5051990;28;19916;-88
2022/08/11 18:06:27;;;;;;;;;;;;;;;;;;5074246;28;20384;-87
